createdAt,value
2018-07-24T00:03:41.198Z,100199.36
2018-07-24T00:08:44.798Z,100206.98
2018-07-24T00:13:48.492Z,100209.20
2018-07-24T00:18:52.294Z,100203.28
2018-07-24T00:23:56.011Z,100205.55
2018-07-24T00:28:59.717Z,100207.42
2018-07-24T00:34:03.425Z,100205.47
2018-07-24T00:39:08.253Z,100200.80
2018-07-24T00:44:11.952Z,100200.91
2018-07-24T00:49:15.721Z,100194.25
2018-07-24T00:54:19.949Z,100194.30
2018-07-24T00:59:23.541Z,100187.00
2018-07-24T01:04:27.228Z,100188.59
2018-07-24T01:09:30.939Z,100181.72
2018-07-24T01:14:34.645Z,100183.86
2018-07-24T01:19:38.347Z,100186.79
2018-07-24T01:24:43.171Z,100183.25
2018-07-24T01:29:46.895Z,100182.15
2018-07-24T01:34:50.645Z,100181.19
2018-07-24T01:39:54.322Z,100183.89
2018-07-24T01:44:58.054Z,100182.05
2018-07-24T01:50:05.612Z,100184.48
2018-07-24T01:55:09.730Z,100177.28
2018-07-24T02:00:15.856Z,100178.23
2018-07-24T02:05:19.538Z,100183.42
2018-07-24T02:10:23.336Z,100187.62
2018-07-24T02:15:26.973Z,100183.18
2018-07-24T02:20:30.655Z,100184.17
2018-07-24T02:25:34.374Z,100186.37
2018-07-24T02:30:38.074Z,100177.68
2018-07-24T02:35:41.751Z,100178.28
2018-07-24T02:40:45.478Z,100176.07
2018-07-24T02:45:49.230Z,100182.34
2018-07-24T02:50:52.887Z,100182.34
2018-07-24T02:55:56.627Z,100183.83
2018-07-24T03:01:00.348Z,100185.80
2018-07-24T03:06:04.109Z,100189.06
2018-07-24T03:11:07.847Z,100193.87
2018-07-24T03:16:11.665Z,100193.95
2018-07-24T03:21:15.502Z,100194.22
2018-07-24T03:26:19.299Z,100185.75
2018-07-24T03:31:23.002Z,100190.39
2018-07-24T03:36:26.719Z,100193.84
2018-07-24T03:41:30.539Z,100194.06
2018-07-24T03:46:34.367Z,100189.42
2018-07-24T03:51:38.078Z,100193.84
2018-07-24T03:56:41.857Z,100191.61
2018-07-24T04:01:45.570Z,100193.45
2018-07-24T04:06:49.369Z,100195.28
2018-07-24T04:11:53.227Z,100202.67
2018-07-24T04:16:56.879Z,100206.95
2018-07-24T04:22:00.599Z,100205.09
2018-07-24T04:27:04.309Z,100207.66
2018-07-24T04:32:08.120Z,100205.57
2018-07-24T04:37:11.791Z,100201.11
2018-07-24T04:42:15.503Z,100202.53
2018-07-24T04:47:19.133Z,100202.87
2018-07-24T04:52:22.747Z,100204.80
2018-07-24T04:57:26.446Z,100203.50
2018-07-24T05:02:30.159Z,100204.67
2018-07-24T05:07:33.765Z,100207.00
2018-07-24T05:12:37.535Z,100212.06
2018-07-24T05:17:41.189Z,100204.58
2018-07-24T05:22:44.902Z,100206.45
2018-07-24T05:27:49.015Z,100209.45
2018-07-24T05:32:52.630Z,100215.91
2018-07-24T05:37:56.273Z,100218.77
2018-07-24T05:42:59.925Z,100222.88
2018-07-24T05:48:03.655Z,100221.09
2018-07-24T05:53:07.497Z,100221.53
2018-07-24T05:58:11.180Z,100222.80
2018-07-24T06:03:14.831Z,100222.12
2018-07-24T06:08:19.267Z,100227.31
2018-07-24T06:13:24.025Z,100230.93
2018-07-24T06:18:29.530Z,100233.69
2018-07-24T06:23:34.602Z,100225.72
2018-07-24T06:28:38.395Z,100218.02
2018-07-24T06:33:42.157Z,100222.85
2018-07-24T06:38:45.832Z,100221.66
2018-07-24T06:43:49.514Z,100229.92
2018-07-24T06:48:53.247Z,100225.80
2018-07-24T06:53:56.909Z,100228.78
2018-07-24T06:59:01.053Z,100223.04
2018-07-24T07:04:04.763Z,100216.45
2018-07-24T07:09:09.221Z,100225.18
2018-07-24T07:14:12.939Z,100216.74
2018-07-24T07:19:16.754Z,100218.09
2018-07-24T07:24:20.873Z,100221.66
2018-07-24T07:29:25.004Z,100221.78
2018-07-24T07:34:28.638Z,100212.18
2018-07-24T07:39:32.353Z,100201.61
2018-07-24T07:44:36.042Z,100198.77
2018-07-24T07:49:39.806Z,100191.00
2018-07-24T07:54:43.494Z,100185.94
2018-07-24T07:59:47.263Z,100194.06
2018-07-24T08:04:51.037Z,100193.45
2018-07-24T08:09:54.820Z,100187.77
2018-07-24T08:14:58.608Z,100179.13
2018-07-24T08:20:03.800Z,100179.73
2018-07-24T08:25:08.002Z,100182.06
2018-07-24T08:30:11.784Z,100173.80
2018-07-24T08:35:15.446Z,100176.84
2018-07-24T08:40:19.279Z,100168.09
2018-07-24T08:45:22.988Z,100161.08
2018-07-24T08:50:26.735Z,100160.41
2018-07-24T08:55:30.684Z,100159.30
2018-07-24T09:00:34.150Z,100165.08
2018-07-24T09:05:37.922Z,100157.17
2018-07-24T09:10:41.606Z,100155.43
2018-07-24T09:15:45.303Z,100157.28
2018-07-24T09:20:49.052Z,100153.97
2018-07-24T09:25:52.792Z,100158.89
2018-07-24T09:30:56.521Z,100145.06
2018-07-24T09:36:00.344Z,100155.14
2018-07-24T09:41:04.051Z,100151.58
2018-07-24T09:46:07.852Z,100137.68
2018-07-24T09:51:11.525Z,100139.25
2018-07-24T09:56:15.277Z,100139.46
2018-07-24T10:01:24.294Z,100139.70
2018-07-24T10:06:27.944Z,100132.80
2018-07-24T10:11:31.639Z,100122.81
2018-07-24T10:16:35.408Z,100124.77
2018-07-24T10:21:39.035Z,100117.24
2018-07-24T10:26:42.720Z,100113.75
2018-07-24T10:31:46.321Z,100114.75
2018-07-24T10:36:50.118Z,100105.98
2018-07-24T10:41:53.834Z,100100.80
2018-07-24T10:46:57.517Z,100096.09
2018-07-24T10:52:01.264Z,100084.14
2018-07-24T10:57:04.970Z,100087.77
2018-07-24T11:02:09.358Z,100072.87
2018-07-24T11:07:13.063Z,100070.05
2018-07-24T11:12:16.835Z,100066.54
2018-07-24T11:17:20.548Z,100065.69
2018-07-24T11:22:24.408Z,100051.88
2018-07-24T11:27:28.104Z,100051.73
2018-07-24T11:32:32.338Z,100050.11
2018-07-24T11:37:35.987Z,100048.97
2018-07-24T11:42:39.646Z,100045.75
2018-07-24T11:47:43.277Z,100039.33
2018-07-24T11:52:46.937Z,100031.44
2018-07-24T11:57:50.607Z,100024.16
2018-07-24T12:02:54.280Z,100027.08
2018-07-24T12:07:58.136Z,100027.31
2018-07-24T12:13:01.685Z,100019.03
2018-07-24T12:18:05.387Z,100009.55
2018-07-24T12:23:09.323Z,100005.72
2018-07-24T12:28:13.045Z,99998.94
2018-07-24T12:33:16.758Z,100010.13
2018-07-24T12:38:20.493Z,100006.15
2018-07-24T12:43:24.141Z,99982.38
2018-07-24T12:48:27.749Z,99985.35
2018-07-24T12:53:31.441Z,99984.70
2018-07-24T12:58:35.064Z,99986.41
2018-07-24T13:03:38.757Z,99971.78
2018-07-24T13:08:42.500Z,99964.58
2018-07-24T13:13:46.317Z,99968.06
2018-07-24T13:18:50.018Z,99961.87
2018-07-24T13:23:53.774Z,99960.20
2018-07-24T13:28:57.718Z,99961.29
2018-07-24T13:34:01.573Z,99947.50
2018-07-24T13:39:08.459Z,99938.00
2018-07-24T13:44:16.403Z,99934.63
2018-07-24T13:54:50.986Z,99935.98
2018-07-24T14:16:01.505Z,99929.79
2018-07-24T14:21:19.644Z,99927.50
2018-07-24T14:36:03.499Z,99908.85
2018-07-24T14:44:46.563Z,99903.82
2018-07-24T14:49:50.340Z,99894.74
2018-07-24T14:54:54.971Z,99889.95
2018-07-24T14:59:58.638Z,99891.65
2018-07-24T15:05:05.238Z,99881.13
2018-07-24T15:10:09.072Z,99882.22
2018-07-24T15:15:13.020Z,99872.80
2018-07-24T15:20:16.810Z,99877.56
2018-07-24T15:25:20.731Z,99872.70
2018-07-24T15:30:24.582Z,99865.27
2018-07-24T15:35:28.511Z,99870.25
2018-07-24T15:40:32.597Z,99865.96
2018-07-24T15:45:36.804Z,99863.66
2018-07-24T15:50:40.832Z,99859.99
2018-07-24T15:55:44.733Z,99859.39
2018-07-24T16:00:48.435Z,99856.08
2018-07-24T16:05:52.474Z,99861.06
2018-07-24T16:10:58.723Z,99860.05
2018-07-24T16:16:04.087Z,99852.82
2018-07-24T16:21:08.344Z,99852.66
2018-07-24T16:26:13.254Z,99846.44
2018-07-24T16:31:17.824Z,99839.14
2018-07-24T16:36:21.698Z,99848.83
2018-07-24T16:41:25.592Z,99846.13
2018-07-24T16:46:30.235Z,99843.30
2018-07-24T16:51:34.288Z,99846.58
2018-07-24T16:56:39.092Z,99842.06
2018-07-24T17:01:43.036Z,99848.13
2018-07-24T17:06:46.654Z,99854.28
2018-07-24T17:11:50.318Z,99850.27
2018-07-24T17:16:54.105Z,99849.37
2018-07-24T17:21:57.761Z,99848.74
2018-07-24T17:27:01.537Z,99845.77
2018-07-24T17:32:05.322Z,99854.89
2018-07-24T17:37:09.258Z,99853.38
2018-07-24T17:42:13.100Z,99857.28
2018-07-24T17:47:16.860Z,99859.20
2018-07-24T17:52:20.553Z,99856.09
2018-07-24T17:57:24.259Z,99864.17
2018-07-24T18:02:27.974Z,99872.45
2018-07-24T18:07:31.837Z,99877.59
2018-07-24T18:12:35.762Z,99873.34
2018-07-24T18:17:39.565Z,99876.52
2018-07-24T18:22:43.427Z,99882.98
2018-07-24T18:27:47.511Z,99880.60
2018-07-24T18:32:51.375Z,99882.47
2018-07-24T18:37:55.914Z,99882.98
2018-07-24T18:42:59.654Z,99886.05
2018-07-24T18:48:03.405Z,99885.02
2018-07-24T18:53:08.040Z,99886.17
2018-07-24T18:58:12.020Z,99888.88
2018-07-24T19:03:15.993Z,99894.99
2018-07-24T19:08:20.433Z,99896.35
2018-07-24T19:13:24.946Z,99899.64
2018-07-24T19:18:28.802Z,99901.33
2018-07-24T19:23:32.681Z,99911.28
2018-07-24T19:28:36.446Z,99914.34
2018-07-24T19:33:40.260Z,99920.46
2018-07-24T19:38:43.968Z,99918.94
2018-07-24T19:43:47.656Z,99927.72
2018-07-24T19:48:52.062Z,99921.61
2018-07-24T19:53:56.088Z,99932.48
2018-07-24T19:59:00.789Z,99929.70
2018-07-24T20:04:04.994Z,99936.11
2018-07-24T20:09:11.659Z,99939.57
2018-07-24T20:14:15.574Z,99943.02
2018-07-24T20:19:19.303Z,99943.64
2018-07-24T20:24:23.252Z,99949.30
2018-07-24T20:29:27.303Z,99949.30
2018-07-24T20:34:31.115Z,99949.98
2018-07-24T20:39:35.029Z,99947.20
2018-07-24T20:44:38.896Z,99953.42
2018-07-24T20:49:42.533Z,99957.09
2018-07-24T20:54:46.277Z,99957.44
2018-07-24T20:59:50.141Z,99952.83
2018-07-24T21:04:53.929Z,99959.56
2018-07-24T21:09:57.671Z,99957.80
2018-07-24T21:15:03.500Z,99953.89
2018-07-24T21:20:08.156Z,99963.74
2018-07-24T21:25:11.908Z,99959.86
2018-07-24T21:30:15.684Z,99957.44
2018-07-24T21:35:19.437Z,99963.98
2018-07-24T21:40:23.100Z,99955.45
2018-07-24T21:45:26.742Z,99965.02
2018-07-24T21:50:30.522Z,99962.52
2018-07-24T21:55:34.305Z,99966.18
2018-07-24T22:00:38.406Z,99967.01
2018-07-24T22:05:42.215Z,99976.86
2018-07-24T22:10:46.400Z,99979.95
2018-07-24T22:15:50.122Z,99977.23
2018-07-24T22:20:54.261Z,99978.03
2018-07-24T22:25:58.011Z,99975.00
2018-07-24T22:31:01.745Z,99982.73
2018-07-24T22:36:05.578Z,99971.59
2018-07-24T22:41:09.370Z,99982.45
2018-07-24T22:46:13.697Z,99980.05
2018-07-24T22:51:18.297Z,99990.88
2018-07-24T22:56:22.042Z,99991.20
2018-07-24T23:01:25.787Z,99984.70
2018-07-24T23:06:29.506Z,99991.80
2018-07-24T23:11:33.114Z,99985.02
2018-07-24T23:16:36.831Z,99992.91
2018-07-24T23:21:40.647Z,99988.69
2018-07-24T23:26:44.322Z,99995.47
2018-07-24T23:31:48.010Z,99991.14
2018-07-24T23:36:51.710Z,99997.47
2018-07-24T23:41:55.408Z,99991.94
2018-07-24T23:46:59.198Z,99990.58
2018-07-24T23:52:02.917Z,99995.59
2018-07-24T23:57:06.606Z,99999.42
